createdAt,value
2019-02-06T00:01:17.696Z,50.30
2019-02-06T00:28:23.569Z,50.00
2019-02-06T00:41:46.369Z,49.80
2019-02-06T00:55:09.187Z,49.70
2019-02-06T01:08:32.026Z,49.50
2019-02-06T01:21:54.808Z,49.30
2019-02-06T01:35:17.599Z,49.20
2019-02-06T01:48:40.409Z,49.20
2019-02-06T02:02:03.245Z,49.10
2019-02-06T02:15:26.131Z,48.80
2019-02-06T02:28:48.860Z,48.80
2019-02-06T02:42:11.800Z,48.70
2019-02-06T02:55:34.511Z,48.70
2019-02-06T03:08:57.319Z,48.60
2019-02-06T03:22:20.168Z,48.40
2019-02-06T03:35:43.011Z,48.30
2019-02-06T03:49:05.852Z,48.30
2019-02-06T04:02:28.585Z,48.30
2019-02-06T04:15:51.400Z,48.20
2019-02-06T04:29:14.226Z,48.20
2019-02-06T04:42:37.077Z,48.10
2019-02-06T05:09:01.526Z,48.10
2019-02-06T05:22:08.800Z,48.00
2019-02-06T05:35:15.997Z,47.90
2019-02-06T05:48:23.233Z,47.90
2019-02-06T06:01:30.430Z,47.90
2019-02-06T06:14:37.594Z,47.90
2019-02-06T06:28:01.289Z,47.80
2019-02-06T06:41:24.085Z,47.90
2019-02-06T06:54:46.904Z,47.70
2019-02-06T07:21:11.419Z,46.60
2019-02-06T07:47:24.284Z,47.00
2019-02-06T08:00:31.499Z,47.40
2019-02-06T08:13:38.657Z,47.50
2019-02-06T08:26:45.799Z,47.60
2019-02-06T09:06:02.865Z,47.90
2019-02-06T09:19:10.092Z,47.90
2019-02-06T09:32:17.353Z,47.90
2019-02-06T09:45:24.538Z,45.30
2019-02-06T09:58:31.694Z,46.10
2019-02-06T10:11:38.938Z,46.20
2019-02-06T10:25:02.582Z,46.70
2019-02-06T10:38:25.417Z,47.30
2019-02-06T10:51:48.218Z,48.60
2019-02-06T11:05:11.038Z,49.60
2019-02-06T11:18:33.851Z,49.40
2019-02-06T11:31:56.698Z,49.90
2019-02-06T11:45:19.463Z,50.40
2019-02-06T11:58:42.316Z,50.00
2019-02-06T12:12:05.081Z,49.90
2019-02-06T12:25:27.951Z,47.50
2019-02-06T12:38:53.252Z,47.20
2019-02-06T12:52:13.569Z,42.70
2019-02-06T13:05:36.374Z,49.00
2019-02-06T13:18:59.202Z,48.50
2019-02-06T13:32:22.015Z,48.40
2019-02-06T13:45:44.843Z,48.20
2019-02-06T13:59:07.642Z,47.90
2019-02-06T14:25:32.132Z,48.60
2019-02-06T14:38:39.293Z,48.70
2019-02-06T14:51:46.431Z,48.90
2019-02-06T15:04:53.573Z,48.80
2019-02-06T15:18:00.758Z,48.90
2019-02-06T15:31:07.887Z,48.80
2019-02-06T15:44:31.878Z,48.50
2019-02-06T15:57:54.784Z,49.10
2019-02-06T16:11:17.580Z,48.50
2019-02-06T16:24:40.315Z,48.70
2019-02-06T16:51:04.769Z,49.60
2019-02-06T17:04:11.937Z,50.50
2019-02-06T17:17:19.166Z,52.00
2019-02-06T17:30:26.396Z,52.40
2019-02-06T17:43:33.652Z,53.30
2019-02-06T17:56:40.839Z,53.50
2019-02-06T18:10:04.553Z,54.70
2019-02-06T18:23:27.350Z,53.90
2019-02-06T18:36:50.166Z,53.70
2019-02-06T18:50:12.954Z,53.40
2019-02-06T19:03:35.834Z,52.20
2019-02-06T19:16:58.626Z,51.70
2019-02-06T19:30:21.438Z,52.00
2019-02-06T19:43:44.259Z,52.00
2019-02-06T19:57:07.100Z,49.50
2019-02-06T20:10:29.906Z,50.60
2019-02-06T20:23:52.709Z,51.30
2019-02-06T20:37:15.497Z,51.90
2019-02-06T21:03:40.545Z,53.80
2019-02-06T21:16:47.736Z,54.10
2019-02-06T21:29:54.904Z,53.60
2019-02-06T21:43:02.058Z,53.40
2019-02-06T21:56:09.255Z,53.30
2019-02-06T22:09:33.310Z,53.50
2019-02-06T22:22:56.089Z,53.60
2019-02-06T22:36:18.927Z,53.80
2019-02-06T22:49:41.721Z,53.20
2019-02-06T23:03:04.560Z,52.90
2019-02-06T23:16:27.370Z,52.70
2019-02-06T23:29:50.198Z,46.80
2019-02-06T23:43:13.030Z,48.60
2019-02-06T23:56:35.821Z,49.10
